ADDS METAR Data INFO
IDs: Format: Raw Decoded Include TAF

Data at: 0114 UTC 21 Oct 2017

PAPM 210056Z AUTO 24003KT 10SM OVC100 02/M06 A2925 RMK AO2 SLP909 T00171061 FZRANO
PAPM 202356Z AUTO 04008KT 10SM BKN100 01/M04 A2926 RMK AO2 SLP911 T00111044 10017 21078 56010 FZRANO
PAPM 202256Z AUTO 04010KT 10SM CLR 01/M04 A2927 RMK AO2 SLP914 T00061044 FZRANO
PAPM 202156Z AUTO 04011KT 10SM CLR M01/M04 A2928 RMK AO2 SLP917 T10111044 FZRANO
PAPM 202056Z AUTO 05010KT 10SM CLR M03/M06 A2929 RMK AO2 SLP921 T10331056 58004 FZRANO
PAPM 201956Z AUTO 04013KT 10SM CLR M03/M06 A2929 RMK AO2 SLP922 T10331056 FZRANO
PAPM 201856Z AUTO 08008KT 10SM SCT100 M07/M08 A2930 RMK AO2 SLP924 T10721083 FZRANO
PAPM 201756Z AUTO 05012KT 10SM SCT100 M07/M08 A2930 RMK AO2 SLP925 T10671078 11033 21078 57007 FZRANO
PAPM 201656Z AUTO 06010KT 10SM CLR M06/M07 A2931 RMK AO2 SLP928 T10561067 FZRANO
PAPM 201556Z AUTO 04013KT 10SM CLR M05/M06 A2931 RMK AO2 SLP929 T10501056 FZRANO
PAPM 201456Z AUTO 05011KT 10SM CLR M07/M07 A2932 RMK AO2 SLP932 T10671072 58018 FZRANO
PAPM 201356Z AUTO 06008KT 10SM CLR M07/M08 A2934 RMK AO2 SLP939 T10671078 FZRANO
PAPM 201256Z AUTO 07006KT 10SM CLR M07/M08 A2936 RMK AO2 SLP944 T10671078 FZRANO
PAPM 201156Z AUTO 05010KT 10SM CLR M03/M04 A2937 RMK AO2 SLP949 T10331044 10000 21056 58013 FZRANO
PAPM 201056Z AUTO 06006KT 10SM CLR M06/M07 A2938 RMK AO2 SLP952 T10561067 FZRANO
PAPM 200956Z AUTO 06005KT 10SM CLR M06/M07 A2941 RMK AO2 SLP961 T10561072 FZRANO
PAPM 200856Z AUTO 03009KT 10SM CLR M02/M04 A2941 RMK AO2 SLP962 T10171039 400281039 56013 FZRANO
PAPM 200756Z AUTO 04008KT 10SM CLR M01/M03 A2942 RMK AO2 SLP965 T10111033 FZRANO
PAPM 200656Z AUTO 01009KT 10SM CLR 00/M04 A2943 RMK AO2 SLP969 T00001039 FZRANO
PAPM 200556Z AUTO 35007KT 10SM CLR 00/M04 A2945 RMK AO2 SLP975 T00001044 10022 21006 58014 FZRANO
PAPM 200456Z AUTO 36006KT 10SM CLR 01/M04 A2946 RMK AO2 SLP979 T00061044 FZRANO
PAPM 200356Z AUTO 35007KT 10SM CLR 01/M04 A2948 RMK AO2 SLP984 T00061039 FZRANO
PAPM 200256Z AUTO 33006KT 10SM BKN031 01/M03 A2949 RMK AO2 SLP988 T00061028 56015 FZRANO
PAPM 200156Z AUTO 33009KT 10SM BKN036 01/M02 A2950 RMK AO2 SLP993 T00111022 FZRANO
PAPM 200056Z AUTO 32007KT 10SM BKN034 01/M04 A2951 RMK AO2 SLP997 T00111044 FZRANO
PAPM 192356Z AUTO 31008KT 10SM CLR 02/M03 A2953 RMK AO2 SLP003 60000 T00221033 10028 21017 56020 FZRANO
PAPM 192256Z AUTO 32007KT 10SM FEW020 02/M02 A2955 RMK AO2 SLP010 T00221022 FZRANO
PAPM 192156Z AUTO 35008KT 10SM SCT013 02/M01 A2957 RMK AO2 RAB2057E03SNE2057 SLP016 P0000 T00221011 FZRANO
PAPM 192056Z AUTO 00000KT 9SM -SN FEW013 BKN030 OVC040 01/M02 A2959 RMK AO2 RAB33E46UPB42E44SNB46 SLP023 P0000 60000 T00061017 56012 FZRANO
PAPM 192054Z AUTO 00000KT 4SM -SN BR FEW013 BKN030 OVC038 01/M02 A2959 RMK AO2 RAB33E46UPB42E44SNB46 P0000 FZRANO
PAPM 192046Z AUTO 32003KT 1 3/4SM -SN BR FEW013 BKN030 OVC041 01/M02 A2959 RMK AO2 RAB33E46UPB42E44SNB46 P0000 FZRANO
PAPM 191956Z AUTO 35003KT 10SM SCT040 01/M01 A2960 RMK AO2 SLP027 T00111006 FZRANO
PAPM 191856Z AUTO 34004KT 10SM BKN038 00/M01 A2961 RMK AO2 SLP031 T00001011 FZRANO
PAPM 191756Z AUTO 33005KT 10SM CLR M02/M02 A2963 RMK AO2 SNB05E19 SLP035 P0000 60000 T10171022 10017 21017 58001 FZRANO
PAPM 191656Z AUTO 33008KT 10SM FEW020 M01/M02 A2963 RMK AO2 SNB07E32 SLP037 P0000 T10111017 FZRANO
PAPM 191556Z AUTO 33007KT 9SM FEW008 SCT032 M01/M02 A2963 RMK AO2 UPB06E34SNB09E21B34E51 SLP037 P0000 T10061017 FZRANO
PAPM 191545Z AUTO 33006KT 5SM -SN BR FEW006 SCT024 BKN041 00/M01 A2963 RMK AO2 UPB06E34SNB09E21B34 P0000 FZRANO
PAPM 191536Z AUTO 32007KT 2 1/2SM -SN BR FEW008 BKN027 OVC041 00/M01 A2963 RMK AO2 VIS 1V5 UPB06E34SNB09E21B34 P0000 FZRANO
PAPM 191514Z AUTO 33004KT 6SM -SN BR BKN023 BKN028 BKN036 00/M01 A2963 RMK AO2 UPB06E09SNB09 P0000 FZRANO
PAPM 191456Z AUTO 33007KT 10SM FEW024 SCT038 00/M01 A2963 RMK AO2 UPB16E19SNE16 SLP036 P0000 60000 T00001011 58006 FZRANO
PAPM 191430Z AUTO 32006KT 10SM FEW024 SCT032 BKN040 00/M02 A2964 RMK AO2 UPB16E19SNE16 P0000 FZRANO
PAPM 191410Z AUTO 33005KT 5SM -SN BR FEW014 BKN023 OVC032 01/M01 A2964 RMK AO2 P0000 FZRANO
PAPM 191356Z AUTO 34007KT 7SM -SN FEW022 BKN035 OVC043 01/M01 A2964 RMK AO2 RAB39E52SNB52 SLP039 P0000 T00061011 FZRANO